Time;durP1;ratioP1;P1;durP2;ratioP2;P2;SDS_P1;SDS_P2;PMS_P1;PMS_P2;Temp;Humidity;BMP_temperature;BMP_pressure;BME280_temperature;BME280_humidity;BME280_pressure;Samples;Min_cycle;Max_cycle;Signal;HPM_P1;HPM_P2
2021/03/17 00:01:06;;;;;;;44.99;23.54;;;;;;;3.78;65.55;98295.05;357806;112;1961978;-69
2021/03/17 00:02:31;;;;;;;41.87;22.17;;;;;;;3.79;65.55;98295.91;330653;112;1962023;-70
2021/03/17 00:03:55;;;;;;;43.11;22.78;;;;;;;3.78;65.53;98291.57;309747;112;2180870;-71
2021/03/17 00:05:22;;;;;;;39.33;22.23;;;;;;;3.74;65.40;98297.30;314858;112;2798971;-70
2021/03/17 00:06:47;;;;;;;51.11;24.94;;;;;;;3.73;65.55;98290.33;357338;111;1965940;-70
2021/03/17 00:08:15;;;;;;;41.47;21.68;;;;;;;3.73;65.36;98292.14;358576;111;1961965;-70
2021/03/17 00:09:38;;;;;;;43.58;22.82;;;;;;;3.70;65.46;98290.69;340392;112;1962887;-70
2021/03/17 00:11:02;;;;;;;32.97;20.61;;;;;;;3.55;65.65;98263.30;338199;112;2217927;-69
2021/03/17 00:12:27;;;;;;;42.01;21.84;;;;;;;3.68;65.56;98294.61;358720;112;1961885;-70
2021/03/17 00:13:52;;;;;;;41.22;22.39;;;;;;;3.69;65.56;98293.58;358009;111;1962011;-70
2021/03/17 00:15:22;;;;;;;35.42;22.24;;;;;;;3.69;65.56;98288.23;337103;112;2313946;-71
2021/03/17 00:16:47;;;;;;;34.19;20.93;;;;;;;3.70;65.63;98287.20;356861;112;1962976;-70
2021/03/17 00:18:13;;;;;;;40.59;21.31;;;;;;;3.71;65.49;98289.69;357255;111;1964967;-70
2021/03/17 00:19:37;;;;;;;38.62;22.17;;;;;;;3.71;65.49;98281.68;345635;115;1962976;-69
2021/03/17 00:21:01;;;;;;;39.25;20.71;;;;;;;3.72;65.45;98282.50;344876;115;1961998;-69
2021/03/17 00:22:25;;;;;;;37.08;22.52;;;;;;;3.72;65.34;98288.66;341867;115;1961911;-69
2021/03/17 00:23:49;;;;;;;42.47;22.58;;;;;;;3.71;65.36;98287.02;344936;115;1961998;-71
2021/03/17 00:25:14;;;;;;;34.09;19.55;;;;;;;3.71;65.47;98286.20;323748;115;1962036;-70
2021/03/17 00:26:38;;;;;;;32.63;19.35;;;;;;;3.67;65.53;98282.25;344499;115;1962004;-70
2021/03/17 00:28:03;;;;;;;33.48;19.32;;;;;;;3.65;65.58;98282.47;302093;115;2146363;-69
2021/03/17 00:29:27;;;;;;;32.00;19.24;;;;;;;3.64;65.64;98277.31;313312;115;1963487;-69
2021/03/17 00:31:01;;;;;;;27.18;17.46;;;;;;;3.64;65.78;98280.80;292089;115;2244667;-69
2021/03/17 00:32:26;;;;;;;24.82;16.17;;;;;;;3.67;65.67;98283.08;311172;116;2064873;-69
2021/03/17 00:33:50;;;;;;;34.92;17.16;;;;;;;3.68;65.57;98287.42;312720;114;2105255;-69
2021/03/17 00:35:15;;;;;;;26.37;16.27;;;;;;;3.68;65.34;98278.59;310424;114;2803900;-69
2021/03/17 00:36:39;;;;;;;33.13;16.20;;;;;;;3.63;65.44;98284.50;304911;114;2208368;-68
2021/03/17 00:38:06;;;;;;;30.76;16.41;;;;;;;3.59;65.61;98280.56;322323;114;2924027;-68
2021/03/17 00:39:29;;;;;;;30.01;17.31;;;;;;;3.59;65.80;98282.41;345393;117;1961935;-69
2021/03/17 00:40:54;;;;;;;26.91;16.72;;;;;;;3.58;65.70;98283.45;341295;114;1961950;-69
2021/03/17 00:42:17;;;;;;;27.95;14.78;;;;;;;3.58;65.79;98280.77;320894;113;2223977;-69
2021/03/17 00:43:42;;;;;;;28.92;15.78;;;;;;;3.59;65.80;98277.89;329291;109;2483007;-67
2021/03/17 00:45:08;;;;;;;26.53;14.37;;;;;;;3.61;65.80;98280.38;307534;112;2866963;-69
2021/03/17 00:46:32;;;;;;;21.84;15.24;;;;;;;3.60;65.76;98276.89;351380;114;1962005;-68
2021/03/17 00:47:40;;;;;;;26.23;14.77;;;;;;;3.62;65.64;98280.16;354050;112;1962004;-68
2021/03/17 00:48:49;;;;;;;25.82;14.43;;;;;;;3.59;65.63;98277.89;352757;114;1961945;-69
2021/03/17 00:50:00;;;;;;;33.33;16.09;;;;;;;3.60;65.82;98281.38;313756;114;2897945;-69
2021/03/17 00:51:05;;;;;;;27.21;16.02;;;;;;;3.62;65.85;98284.69;339293;114;1963862;-69
2021/03/17 00:52:39;;;;;;;21.28;14.11;;;;;;;3.64;65.79;98288.81;319752;114;1981734;-68
2021/03/17 00:53:52;;;;;;;21.13;13.79;;;;;;;3.68;65.58;98284.74;345074;115;1961970;-71
2021/03/17 00:54:58;;;;;;;28.52;15.57;;;;;;;3.68;65.56;98289.27;298170;116;2166445;-71
2021/03/17 00:56:06;;;;;;;26.45;13.91;;;;;;;3.67;65.58;98288.41;344799;114;1961929;-71
2021/03/17 00:57:13;;;;;;;27.59;12.92;;;;;;;3.68;65.42;98289.27;334399;115;1962941;-71
2021/03/17 00:58:19;;;;;;;27.10;14.52;;;;;;;3.66;65.36;98288.63;342806;115;1961955;-71
2021/03/17 00:59:24;;;;;;;23.27;15.97;;;;;;;3.64;65.43;98282.66;341706;115;1962000;-72
2021/03/17 01:00:32;;;;;;;24.74;13.78;;;;;;;3.63;65.41;98283.69;328867;115;2883974;-71
2021/03/17 01:01:37;;;;;;;24.62;12.93;;;;;;;3.61;65.48;98289.20;344088;117;1963986;-71
2021/03/17 01:02:43;;;;;;;21.57;11.13;;;;;;;3.60;65.40;98282.23;335524;117;1961984;-71
2021/03/17 01:03:48;;;;;;;22.22;13.31;;;;;;;3.57;65.46;98290.60;343253;115;1961956;-71
2021/03/17 01:04:54;;;;;;;20.59;12.18;;;;;;;3.57;65.46;98279.10;342892;115;1963964;-72
2021/03/17 01:06:00;;;;;;;21.34;12.22;;;;;;;3.56;65.40;98274.80;305410;115;2747083;-71
2021/03/17 01:07:08;;;;;;;23.07;11.83;;;;;;;3.55;65.43;98286.48;341534;115;1961921;-72
2021/03/17 01:08:14;;;;;;;23.86;12.34;;;;;;;3.55;65.42;98281.14;340755;115;1962003;-72
2021/03/17 01:09:19;;;;;;;21.63;12.51;;;;;;;3.56;65.49;98288.14;306366;115;2048511;-71
2021/03/17 01:10:38;;;;;;;20.21;12.11;;;;;;;3.55;65.62;98281.98;343675;115;1962001;-71
2021/03/17 01:11:43;;;;;;;20.84;12.16;;;;;;;3.56;65.62;98275.62;311511;113;2016804;-71
2021/03/17 01:12:49;;;;;;;23.56;13.01;;;;;;;3.58;65.58;98278.92;341230;113;1964023;-71
2021/03/17 01:13:54;;;;;;;30.22;12.86;;;;;;;3.58;65.61;98273.58;347422;113;1961916;-71
2021/03/17 01:14:59;;;;;;;22.29;13.31;;;;;;;3.57;65.53;98277.25;347709;113;1961994;-72
2021/03/17 01:16:05;;;;;;;18.91;12.64;;;;;;;3.55;65.62;98273.13;348141;114;1961960;-72
2021/03/17 01:17:12;;;;;;;22.83;13.07;;;;;;;3.56;65.73;98278.28;339769;114;2898001;-69
2021/03/17 01:18:17;;;;;;;25.54;13.19;;;;;;;3.56;65.74;98274.80;348050;113;1961941;-72
2021/03/17 01:19:23;;;;;;;20.90;11.44;;;;;;;3.58;65.84;98275.44;347542;113;1962985;-72
2021/03/17 01:20:30;;;;;;;22.60;12.87;;;;;;;3.59;65.77;98271.73;345981;114;1961984;-72
2021/03/17 01:21:35;;;;;;;24.79;12.56;;;;;;;3.52;65.76;98255.69;298515;113;2223248;-72
2021/03/17 01:22:41;;;;;;;21.76;12.44;;;;;;;3.62;65.72;98266.81;324206;113;1963011;-72
2021/03/17 01:23:47;;;;;;;21.32;12.69;;;;;;;3.64;65.64;98263.96;348009;114;1961994;-72
2021/03/17 01:24:53;;;;;;;18.99;12.76;;;;;;;3.65;65.62;98270.94;348354;113;1962030;-72
2021/03/17 01:25:59;;;;;;;19.82;11.90;;;;;;;3.66;65.51;98267.27;321814;114;2467015;-71
2021/03/17 01:27:05;;;;;;;21.40;12.43;;;;;;;3.68;65.40;98273.25;341170;113;1961990;-72
2021/03/17 01:28:11;;;;;;;21.45;12.37;;;;;;;3.67;65.36;98260.89;347579;114;1962932;-72
2021/03/17 01:29:17;;;;;;;25.76;12.86;;;;;;;3.67;65.51;98266.23;348546;113;1964037;-71
2021/03/17 01:30:29;;;;;;;24.39;12.32;;;;;;;3.67;65.57;98268.91;337244;113;1962064;-71
2021/03/17 01:31:34;;;;;;;20.53;11.42;;;;;;;3.66;65.46;98265.41;347627;113;1961975;-71
2021/03/17 01:32:40;;;;;;;26.35;13.23;;;;;;;3.67;65.44;98268.91;348597;114;1964051;-71
2021/03/17 01:33:45;;;;;;;18.43;12.08;;;;;;;3.67;65.37;98274.25;346708;113;1964042;-71
2021/03/17 01:34:52;;;;;;;19.00;11.57;;;;;;;3.65;65.46;98269.13;341575;113;1961973;-71
2021/03/17 01:35:58;;;;;;;21.17;12.13;;;;;;;3.61;65.48;98270.52;346575;114;1964025;-71
2021/03/17 01:37:04;;;;;;;22.44;12.20;;;;;;;3.60;65.71;98265.36;347839;113;1962985;-73
2021/03/17 01:38:12;;;;;;;19.96;12.67;;;;;;;3.60;65.72;98271.55;313879;114;2619027;-72
2021/03/17 01:39:18;;;;;;;20.74;12.46;;;;;;;3.60;65.61;98268.03;347831;114;1961972;-71
2021/03/17 01:40:27;;;;;;;18.29;12.08;;;;;;;3.62;65.46;98274.01;311265;113;2079692;-71
2021/03/17 01:41:34;;;;;;;19.49;11.58;;;;;;;3.60;65.51;98276.04;348271;114;1961952;-71
2021/03/17 01:42:39;;;;;;;26.61;12.12;;;;;;;3.60;65.30;98279.56;337653;109;2226775;-69
2021/03/17 01:43:45;;;;;;;21.02;11.30;;;;;;;3.57;65.39;98273.77;341837;112;1962030;-70
2021/03/17 01:44:50;;;;;;;19.97;11.98;;;;;;;3.56;65.44;98272.95;348914;113;1963945;-70
2021/03/17 01:45:55;;;;;;;22.88;11.76;;;;;;;3.55;65.45;98273.98;354626;109;1960661;-69
2021/03/17 01:47:03;;;;;;;18.78;11.56;;;;;;;3.54;65.49;98274.98;357085;111;1961964;-70
2021/03/17 01:48:10;;;;;;;21.59;11.93;;;;;;;3.53;65.43;98271.48;356298;113;1961999;-69
2021/03/17 01:49:16;;;;;;;19.33;11.38;;;;;;;3.53;65.52;98270.67;352271;113;1962061;-68
2021/03/17 01:50:26;;;;;;;20.45;11.56;;;;;;;3.54;65.48;98266.97;322047;113;1961975;-69
2021/03/17 01:51:31;;;;;;;20.74;11.55;;;;;;;3.52;65.45;98267.18;340192;109;2275920;-70
2021/03/17 01:52:37;;;;;;;22.36;11.71;;;;;;;3.53;65.58;98262.66;338463;110;1961980;-70
2021/03/17 01:53:42;;;;;;;17.92;10.93;;;;;;;3.55;65.55;98265.97;359754;110;1961885;-70
2021/03/17 01:54:48;;;;;;;19.91;11.73;;;;;;;3.55;65.39;98263.30;360217;110;1962028;-70
2021/03/17 01:55:55;;;;;;;22.72;11.77;;;;;;;3.56;65.46;98259.59;359589;110;1961968;-68
2021/03/17 01:57:01;;;;;;;20.17;11.24;;;;;;;3.58;65.34;98260.23;359588;106;1959709;-70
2021/03/17 01:58:07;;;;;;;19.03;12.04;;;;;;;3.56;65.31;98264.94;355695;111;1961930;-71
2021/03/17 01:59:13;;;;;;;20.52;11.96;;;;;;;3.56;65.36;98261.45;354323;111;1962965;-69
2021/03/17 02:00:21;;;;;;;19.07;12.20;;;;;;;3.56;65.40;98264.12;356187;111;1962018;-69
2021/03/17 02:01:27;;;;;;;19.12;12.26;;;;;;;3.56;65.45;98267.61;355623;111;1962033;-69
2021/03/17 02:02:35;;;;;;;17.53;11.76;;;;;;;3.56;65.38;98259.59;322325;111;2586022;-70
2021/03/17 02:03:40;;;;;;;24.54;11.81;;;;;;;3.55;65.48;98263.30;356566;111;1961973;-70
2021/03/17 02:04:46;;;;;;;27.17;12.89;;;;;;;3.56;65.45;98264.94;356195;111;1962011;-70
2021/03/17 02:06:04;;;;;;;20.68;12.30;;;;;;;3.57;65.53;98263.91;330644;111;2212853;-69
2021/03/17 02:07:11;;;;;;;24.12;12.08;;;;;;;3.58;65.42;98268.24;354372;113;1962039;-70
2021/03/17 02:08:21;;;;;;;22.31;12.91;;;;;;;3.58;65.45;98262.91;354683;111;1962014;-70
2021/03/17 02:09:27;;;;;;;20.38;12.56;;;;;;;3.58;65.43;98265.58;359696;111;1961962;-69
2021/03/17 02:10:35;;;;;;;25.51;12.26;;;;;;;3.57;65.51;98258.56;362400;111;1962085;-69
2021/03/17 02:11:44;;;;;;;17.13;11.75;;;;;;;3.60;65.47;98262.69;323875;109;2029836;-69
2021/03/17 02:13:23;;;;;;;27.04;12.49;;;;;;;3.60;65.49;98252.86;309530;111;2194735;-70
2021/03/17 02:14:44;;;;;;;20.18;11.81;;;;;;;3.59;65.48;98259.20;314169;109;2827897;-70
2021/03/17 02:15:59;;;;;;;20.52;11.64;;;;;;;3.59;65.58;98253.04;339765;111;1964051;-70
2021/03/17 02:17:15;;;;;;;20.54;11.89;;;;;;;3.59;65.70;98250.38;359667;111;1963029;-69
2021/03/17 02:18:24;;;;;;;22.56;12.09;;;;;;;3.61;65.61;98251.83;361120;111;1961941;-70
2021/03/17 02:20:07;;;;;;;19.16;12.32;;;;;;;3.61;65.56;98254.49;360339;111;1962031;-70
2021/03/17 02:21:31;;;;;;;20.17;12.33;;;;;;;3.62;65.32;98255.31;323898;113;1962069;-70
2021/03/17 02:23:00;;;;;;;21.91;12.19;;;;;;;3.58;65.37;98262.08;316874;114;2228960;-69
2021/03/17 02:24:10;;;;;;;20.67;12.62;;;;;;;3.56;65.34;98256.92;318586;109;2751946;-69
2021/03/17 02:25:36;;;;;;;21.51;12.71;;;;;;;3.53;65.26;98259.99;321682;111;2679000;-70
2021/03/17 02:27:05;;;;;;;24.30;12.42;;;;;;;3.53;65.30;98265.33;361142;111;1963977;-69
2021/03/17 02:28:30;;;;;;;17.77;11.39;;;;;;;3.50;65.49;98260.39;347601;111;1961997;-70
2021/03/17 02:30:14;;;;;;;19.07;12.79;;;;;;;3.47;65.55;98260.78;342452;112;1964465;-69
2021/03/17 02:31:26;;;;;;;22.88;12.62;;;;;;;3.46;65.51;98261.78;329103;111;1962018;-70
2021/03/17 02:32:53;;;;;;;24.55;12.12;;;;;;;3.44;65.71;98259.33;359724;111;1962915;-70
2021/03/17 02:34:10;;;;;;;23.48;12.36;;;;;;;3.44;65.76;98258.47;345815;109;1962808;-70
2021/03/17 02:35:20;;;;;;;20.98;13.13;;;;;;;3.43;65.80;98262.99;359411;111;1961990;-70
2021/03/17 02:36:37;;;;;;;25.43;12.56;;;;;;;3.43;65.80;98268.34;347397;109;2220901;-70
2021/03/17 02:37:45;;;;;;;21.62;13.07;;;;;;;3.46;65.68;98264.45;349892;109;1962057;-69
2021/03/17 02:39:04;;;;;;;23.06;12.01;;;;;;;3.45;65.71;98257.47;317659;111;2796967;-70
2021/03/17 02:40:15;;;;;;;21.38;12.04;;;;;;;3.47;65.50;98258.11;322582;109;2049471;-70
2021/03/17 02:41:30;;;;;;;21.71;13.38;;;;;;;3.46;65.43;98259.11;326821;109;2217007;-70
2021/03/17 02:42:39;;;;;;;20.96;11.87;;;;;;;3.46;65.37;98259.11;310761;111;2195014;-70
2021/03/17 02:43:49;;;;;;;20.69;11.87;;;;;;;3.44;65.46;98258.47;322768;111;2672996;-71
2021/03/17 02:44:58;;;;;;;19.58;11.10;;;;;;;3.41;65.53;98259.69;324782;111;2625055;-71
2021/03/17 02:46:08;;;;;;;19.49;10.77;;;;;;;3.42;65.48;98260.54;327398;109;2569088;-70
2021/03/17 02:47:16;;;;;;;22.00;11.17;;;;;;;3.42;65.43;98261.36;337844;111;2400077;-70
2021/03/17 02:48:29;;;;;;;20.89;11.51;;;;;;;3.43;65.30;98257.66;360353;111;1962000;-70
2021/03/17 02:49:37;;;;;;;25.91;11.84;;;;;;;3.42;65.15;98261.36;354524;111;1963077;-69
2021/03/17 02:50:46;;;;;;;24.85;11.96;;;;;;;3.43;64.93;98257.66;329079;111;2597966;-70
2021/03/17 02:51:55;;;;;;;22.48;11.94;;;;;;;3.42;64.94;98260.54;361583;111;1961961;-71
2021/03/17 02:53:03;;;;;;;19.89;11.58;;;;;;;3.42;64.91;98257.87;359489;111;1962003;-70
2021/03/17 02:54:12;;;;;;;21.92;11.36;;;;;;;3.41;65.01;98253.53;360789;111;1962074;-70
2021/03/17 02:55:19;;;;;;;21.04;10.57;;;;;;;3.41;64.84;98261.54;359915;109;1962015;-70
2021/03/17 02:56:28;;;;;;;17.71;10.44;;;;;;;3.41;64.68;98248.19;336039;111;2405986;-70
2021/03/17 02:57:37;;;;;;;18.77;10.33;;;;;;;3.41;64.78;98254.34;359896;111;1962060;-70
2021/03/17 02:58:45;;;;;;;19.54;11.28;;;;;;;3.42;64.81;98253.34;359455;111;1961938;-70
2021/03/17 02:59:53;;;;;;;19.12;10.47;;;;;;;3.39;64.79;98244.92;338880;111;1961992;-69
2021/03/17 03:01:01;;;;;;;23.87;11.14;;;;;;;3.38;64.96;98257.41;359404;111;1962057;-71
2021/03/17 03:02:12;;;;;;;20.37;11.01;;;;;;;3.38;65.03;98256.59;360719;109;1963947;-71
2021/03/17 03:03:19;;;;;;;20.31;10.46;;;;;;;3.37;65.10;98255.78;360361;111;1963939;-69
2021/03/17 03:04:25;;;;;;;23.43;12.28;;;;;;;3.39;65.22;98251.08;358782;111;1964973;-70
2021/03/17 03:05:34;;;;;;;27.31;11.54;;;;;;;3.43;65.07;98251.50;359427;111;1961901;-70
2021/03/17 03:06:44;;;;;;;20.84;10.62;;;;;;;3.46;64.95;98256.44;358137;106;1960726;-68
2021/03/17 03:08:02;;;;;;;20.85;10.78;;;;;;;3.46;64.90;98259.11;351395;113;1962050;-69
2021/03/17 03:09:10;;;;;;;19.68;11.16;;;;;;;3.47;64.63;98252.77;353716;111;1962323;-69
2021/03/17 03:10:20;;;;;;;22.18;11.78;;;;;;;3.46;64.72;98251.10;325736;111;2549914;-69
2021/03/17 03:11:27;;;;;;;18.01;10.83;;;;;;;3.45;64.55;98257.47;315821;112;2782899;-70
2021/03/17 03:12:33;;;;;;;18.73;10.73;;;;;;;3.44;64.58;98248.65;359048;112;1961964;-70
2021/03/17 03:13:41;;;;;;;22.03;11.85;;;;;;;3.44;64.67;98247.80;357875;111;1962940;-71
2021/03/17 03:14:53;;;;;;;19.55;10.63;;;;;;;3.44;64.72;98248.65;358265;112;1961937;-69
2021/03/17 03:16:00;;;;;;;20.55;11.51;;;;;;;3.43;64.65;98249.65;357318;112;1961970;-69
2021/03/17 03:17:08;;;;;;;20.29;11.48;;;;;;;3.42;64.67;98250.68;356648;111;1961951;-69
2021/03/17 03:18:14;;;;;;;20.07;11.60;;;;;;;3.42;64.67;98249.86;356393;113;1961958;-70
2021/03/17 03:19:23;;;;;;;22.06;11.91;;;;;;;3.40;64.78;98246.55;332471;113;1961916;-70
2021/03/17 03:20:34;;;;;;;27.17;13.01;;;;;;;3.42;64.85;98255.20;356708;112;1962016;-70
2021/03/17 03:21:40;;;;;;;24.53;12.02;;;;;;;3.43;64.86;98252.31;357354;112;1969880;-69
2021/03/17 03:22:48;;;;;;;20.44;12.36;;;;;;;3.44;64.67;98248.65;356444;112;1961993;-70
2021/03/17 03:23:55;;;;;;;20.81;10.85;;;;;;;3.44;64.76;98253.14;340500;111;1964056;-70
2021/03/17 03:25:03;;;;;;;21.39;11.79;;;;;;;3.42;64.87;98258.69;356411;112;1964038;-69
2021/03/17 03:26:10;;;;;;;23.39;11.84;;;;;;;3.44;64.87;98256.66;358576;112;1963986;-68
2021/03/17 03:27:17;;;;;;;17.82;11.24;;;;;;;3.42;64.87;98256.02;325298;112;2958937;-69
2021/03/17 03:28:24;;;;;;;19.37;11.72;;;;;;;3.43;65.02;98260.33;358320;111;1961983;-69
2021/03/17 03:29:33;;;;;;;20.74;12.32;;;;;;;3.44;64.97;98261.14;359378;112;1963965;-69
2021/03/17 03:30:43;;;;;;;23.85;12.67;;;;;;;3.44;64.99;98261.99;357520;111;1961837;-69
2021/03/17 03:31:51;;;;;;;19.34;11.51;;;;;;;3.44;65.10;98264.66;357603;112;1961937;-70
2021/03/17 03:32:56;;;;;;;24.88;13.43;;;;;;;3.46;65.17;98256.44;358663;112;1961965;-70
2021/03/17 03:34:03;;;;;;;22.78;13.07;;;;;;;3.47;65.15;98256.27;358330;112;1962037;-70
2021/03/17 03:35:12;;;;;;;22.09;13.49;;;;;;;3.49;65.09;98258.72;326147;112;2560937;-71
2021/03/17 03:36:20;;;;;;;19.22;12.80;;;;;;;3.48;65.06;98252.56;335039;112;2423052;-70
2021/03/17 03:37:25;;;;;;;21.41;13.71;;;;;;;3.49;65.05;98261.39;350504;115;1961902;-70
2021/03/17 03:38:31;;;;;;;23.41;13.68;;;;;;;3.47;65.03;98260.78;362579;107;1960845;-70
2021/03/17 03:39:37;;;;;;;25.07;14.48;;;;;;;3.47;65.17;98258.11;362065;110;1961997;-70
2021/03/17 03:40:43;;;;;;;27.51;14.64;;;;;;;3.46;65.23;98253.77;316004;110;2149018;-71
2021/03/17 03:41:56;;;;;;;24.79;14.01;;;;;;;3.43;65.14;98259.50;361491;110;1961903;-70
2021/03/17 03:43:03;;;;;;;26.16;14.24;;;;;;;3.43;65.10;98249.65;339733;110;2388875;-70
2021/03/17 03:44:10;;;;;;;22.52;13.88;;;;;;;3.44;65.08;98250.47;360893;110;1961976;-70
2021/03/17 03:45:19;;;;;;;20.83;13.19;;;;;;;3.40;65.06;98246.55;321403;110;2708021;-70
2021/03/17 03:46:25;;;;;;;27.36;13.52;;;;;;;3.38;65.07;98245.92;362470;110;1962946;-70
2021/03/17 03:47:32;;;;;;;22.43;12.77;;;;;;;3.37;65.17;98247.77;347593;110;1962033;-70
2021/03/17 03:48:39;;;;;;;27.27;13.76;;;;;;;3.38;65.17;98253.92;362030;110;1964994;-70
2021/03/17 03:49:44;;;;;;;21.67;12.73;;;;;;;3.36;65.23;98248.80;328383;110;2606955;-69
2021/03/17 03:50:52;;;;;;;19.93;12.32;;;;;;;3.36;65.37;98243.46;358496;110;1961966;-69
2021/03/17 03:52:07;;;;;;;23.61;13.37;;;;;;;3.35;65.35;98247.13;360408;110;1961949;-70
2021/03/17 03:53:23;;;;;;;21.24;12.21;;;;;;;3.36;65.26;98250.62;358700;110;1961990;-70
2021/03/17 03:54:32;;;;;;;22.96;12.96;;;;;;;3.35;65.19;98254.31;329610;111;1963035;-71
2021/03/17 03:55:45;;;;;;;22.72;13.45;;;;;;;3.33;65.30;98254.50;333648;111;1961788;-70
2021/03/17 03:57:11;;;;;;;25.01;13.33;;;;;;;3.33;65.33;98257.17;317359;111;2900977;-70
2021/03/17 03:58:29;;;;;;;22.58;12.84;;;;;;;3.34;65.30;98255.34;326764;106;2416036;-72
2021/03/17 03:59:39;;;;;;;22.16;13.14;;;;;;;3.33;65.24;98246.49;343429;117;1964006;-72
2021/03/17 04:00:46;;;;;;;26.07;13.04;;;;;;;3.33;65.19;98248.34;337253;119;1964073;-72
2021/03/17 04:02:00;;;;;;;24.12;13.57;;;;;;;3.33;65.12;98251.02;317142;121;1961814;-72
2021/03/17 04:03:07;;;;;;;23.77;13.08;;;;;;;3.33;65.13;98237.66;316913;119;1962006;-72
2021/03/17 04:04:20;;;;;;;27.96;14.61;;;;;;;3.15;65.19;98225.66;339276;118;1962013;-72
2021/03/17 04:05:28;;;;;;;30.25;13.57;;;;;;;3.33;65.20;98249.16;318837;119;1962053;-73
2021/03/17 04:06:35;;;;;;;23.79;14.49;;;;;;;3.32;64.98;98242.19;315583;108;2434671;-71
2021/03/17 04:07:55;;;;;;;25.63;14.28;;;;;;;3.33;65.05;98243.83;337845;118;1961992;-71
2021/03/17 04:09:03;;;;;;;24.28;12.91;;;;;;;3.33;65.03;98245.67;339768;119;1961963;-71
2021/03/17 04:10:11;;;;;;;22.08;13.84;;;;;;;3.34;64.94;98239.34;338801;118;1963007;-71
2021/03/17 04:11:18;;;;;;;24.18;12.44;;;;;;;3.34;64.86;98240.16;304281;117;2651941;-72
2021/03/17 04:12:25;;;;;;;22.73;12.69;;;;;;;3.33;64.74;98240.34;350242;115;1963898;-71
2021/03/17 04:13:33;;;;;;;23.66;12.17;;;;;;;3.32;64.79;98241.37;350683;111;1962056;-70
2021/03/17 04:14:40;;;;;;;21.94;13.34;;;;;;;3.32;64.87;98238.70;354604;112;1964430;-70
2021/03/17 04:15:48;;;;;;;22.64;13.70;;;;;;;3.32;64.93;98244.03;331689;112;1962024;-70
2021/03/17 04:16:57;;;;;;;28.19;13.59;;;;;;;3.30;64.84;98234.36;353125;106;1960732;-70
2021/03/17 04:18:12;;;;;;;24.49;12.67;;;;;;;3.30;64.78;98239.70;355022;113;1961948;-70
2021/03/17 04:19:31;;;;;;;23.78;12.96;;;;;;;3.29;64.98;98240.73;346626;115;1961961;-70
2021/03/17 04:20:44;;;;;;;24.98;13.68;;;;;;;3.29;65.03;98240.73;342240;117;1961989;-71
2021/03/17 04:21:52;;;;;;;28.36;15.09;;;;;;;3.31;65.12;98232.55;320614;117;1962097;-71
2021/03/17 04:22:59;;;;;;;26.41;14.39;;;;;;;3.32;65.03;98231.51;343478;117;1968733;-72
2021/03/17 04:24:06;;;;;;;21.99;13.69;;;;;;;3.36;64.84;98231.94;309537;117;1996101;-71
2021/03/17 04:25:15;;;;;;;24.29;13.74;;;;;;;3.36;64.97;98235.45;344008;117;1960893;-71
2021/03/17 04:26:22;;;;;;;24.69;14.27;;;;;;;3.38;64.83;98240.58;340910;118;1963027;-72
2021/03/17 04:27:29;;;;;;;22.79;14.06;;;;;;;3.35;64.80;98231.11;292702;118;2219807;-71
2021/03/17 04:28:37;;;;;;;24.38;13.31;;;;;;;3.38;64.88;98232.57;342179;117;1961093;-71
2021/03/17 04:29:46;;;;;;;25.88;14.78;;;;;;;3.39;64.83;98236.91;335154;117;1960841;-71
2021/03/17 04:30:54;;;;;;;24.36;13.78;;;;;;;3.39;64.68;98239.58;319934;118;1960782;-72
2021/03/17 04:32:02;;;;;;;21.86;13.97;;;;;;;3.40;64.80;98241.22;341897;117;1960815;-71
2021/03/17 04:33:09;;;;;;;24.83;13.92;;;;;;;3.40;64.72;98236.70;341569;117;1960828;-71
2021/03/17 04:34:15;;;;;;;22.38;13.53;;;;;;;3.41;64.74;98243.67;343770;117;1960737;-71
2021/03/17 04:35:21;;;;;;;24.56;13.83;;;;;;;3.39;64.62;98235.06;324280;117;2350026;-71
2021/03/17 04:36:31;;;;;;;25.34;13.68;;;;;;;3.40;64.88;98234.03;342932;117;1960850;-71
2021/03/17 04:37:39;;;;;;;31.09;16.78;;;;;;;3.43;64.90;98230.96;340929;115;1961893;-71
2021/03/17 04:38:46;;;;;;;35.04;15.48;;;;;;;3.45;64.71;98238.78;329806;117;2228050;-71
2021/03/17 04:39:53;;;;;;;28.51;14.36;;;;;;;3.47;64.75;98234.09;343499;115;1962007;-71
2021/03/17 04:40:59;;;;;;;26.16;14.97;;;;;;;3.48;64.71;98233.88;316337;117;2494936;-71
2021/03/17 04:42:06;;;;;;;25.14;14.39;;;;;;;3.49;64.69;98237.36;342679;117;1960996;-71
2021/03/17 04:43:12;;;;;;;24.61;15.04;;;;;;;3.50;64.75;98234.51;344134;117;1960902;-72
2021/03/17 04:44:18;;;;;;;21.49;13.47;;;;;;;3.54;64.55;98226.92;317043;118;2223944;-71
2021/03/17 04:45:23;;;;;;;25.95;15.14;;;;;;;3.54;64.24;98229.59;340290;117;1962967;-71
2021/03/17 04:46:33;;;;;;;23.97;14.18;;;;;;;3.57;64.26;98234.53;349300;108;1960679;-70
2021/03/17 04:47:41;;;;;;;21.15;14.36;;;;;;;3.57;64.29;98231.86;360716;110;1962031;-70
2021/03/17 04:48:47;;;;;;;23.09;12.54;;;;;;;3.56;63.99;98222.22;321170;113;1961984;-70
2021/03/17 04:49:55;;;;;;;29.23;12.84;;;;;;;3.57;64.07;98234.53;349076;113;1961969;-70
2021/03/17 04:51:01;;;;;;;25.72;14.07;;;;;;;3.56;64.07;98230.23;330911;114;2323140;-70
2021/03/17 04:52:07;;;;;;;33.97;12.94;;;;;;;3.57;64.09;98231.05;359225;110;1962003;-70
2021/03/17 04:53:13;;;;;;;22.74;12.82;;;;;;;3.57;64.23;98229.19;349267;113;1962062;-70
2021/03/17 04:54:19;;;;;;;22.60;13.16;;;;;;;3.59;64.11;98224.48;348130;114;1962980;-70
2021/03/17 04:55:26;;;;;;;20.16;11.94;;;;;;;3.60;64.12;98226.16;329737;114;1961977;-70
2021/03/17 04:56:33;;;;;;;26.57;13.44;;;;;;;3.59;63.86;98231.68;348076;114;1961923;-70
2021/03/17 04:57:42;;;;;;;24.96;12.87;;;;;;;3.55;64.16;98233.93;323186;110;1999588;-70
2021/03/17 04:58:50;;;;;;;28.28;13.77;;;;;;;3.57;64.34;98231.86;326331;110;2938963;-80
2021/03/17 04:59:57;;;;;;;28.68;13.17;;;;;;;3.60;64.24;98226.16;350022;114;1961975;-70
2021/03/17 05:01:14;;;;;;;27.64;14.73;;;;;;;3.62;64.09;98225.94;328962;110;1961903;-70
2021/03/17 05:02:24;;;;;;;30.40;13.16;;;;;;;3.65;64.06;98230.89;346037;115;1961982;-71
2021/03/17 05:03:33;;;;;;;22.01;12.27;;;;;;;3.62;64.02;98229.43;344469;117;1961962;-70
2021/03/17 05:04:40;;;;;;;29.58;13.92;;;;;;;3.63;64.13;98220.42;349318;116;1961956;-71
2021/03/17 05:05:49;;;;;;;25.47;13.25;;;;;;;3.64;63.85;98223.91;332361;112;2375974;-71
2021/03/17 05:06:57;;;;;;;25.74;13.26;;;;;;;3.62;63.97;98225.94;312397;114;2085234;-70
2021/03/17 05:08:05;;;;;;;25.77;12.46;;;;;;;3.64;64.17;98218.56;354379;112;1964020;-70
2021/03/17 05:09:13;;;;;;;33.92;14.13;;;;;;;3.66;64.06;98222.69;332242;114;1962956;-70
2021/03/17 05:10:19;;;;;;;25.59;14.28;;;;;;;3.69;64.03;98221.47;353064;114;1961893;-70
2021/03/17 05:11:27;;;;;;;25.29;13.90;;;;;;;3.69;63.91;98219.63;354355;114;1963019;-70
2021/03/17 05:12:33;;;;;;;22.92;13.04;;;;;;;3.71;63.95;98217.59;351261;114;1963985;-70
2021/03/17 05:13:40;;;;;;;28.78;15.48;;;;;;;3.72;63.85;98223.75;312028;114;2239994;-71
2021/03/17 05:14:46;;;;;;;23.64;13.30;;;;;;;3.74;63.82;98221.70;353152;114;1962000;-70
2021/03/17 05:15:54;;;;;;;28.92;13.17;;;;;;;3.73;64.00;98218.22;307287;114;2835926;-71
2021/03/17 05:17:02;;;;;;;27.61;14.57;;;;;;;3.75;63.86;98216.15;353004;114;1961949;-70
2021/03/17 05:18:10;;;;;;;26.59;13.16;;;;;;;3.79;63.80;98213.11;344806;114;1964022;-71
2021/03/17 05:19:16;;;;;;;24.62;13.42;;;;;;;3.79;63.56;98218.45;351837;114;1964070;-71
2021/03/17 05:20:25;;;;;;;21.57;13.03;;;;;;;3.79;63.51;98223.80;353961;112;1961986;-70
2021/03/17 05:21:34;;;;;;;23.71;14.16;;;;;;;3.77;63.49;98215.14;302433;114;2789968;-70
2021/03/17 05:22:46;;;;;;;51.20;15.16;;;;;;;3.81;63.64;98221.73;347028;114;1962030;-70
2021/03/17 05:23:52;;;;;;;24.67;12.55;;;;;;;3.82;63.57;98218.88;352682;114;1961918;-70